Impacts METAR Board INFO
IDs:

KTPA - Tampa Intl Arpt, FL, US

Updated at: 2258 UTC 21 Nov 2017
Potential Impact None Slight Moderate High
Time21/10Z 21/11Z 21/12Z 21/13Z 21/14Z 21/15Z 21/16Z 21/17Z 21/18Z 21/19Z 21/20Z 21/21Z 21/22Z
VIS10 10 10 10 10 10 10 10 10 10 10 10 7
CIG-- 250 250 250 250 220 220 65 55 65 55 65 --
CoverSCTBKNBKNBKNBKNOVCOVCOVCOVCOVCOVCBKNSCT
FltCatVFRVFRVFRVFRVFRVFRVFRVFRVFRVFRVFRVFRVFR
WX--------------------------
WDir7000807011013015015012080100100
WSpd6 4 4 4 4 8 7 7 8 4 5 4 5
WGst-- -- -- -- -- -- -- -- -- -- -- -- --
Raw hourly METARs
KTPA 210953Z 07006KT 10SM SCT250 19/14 A3000 RMK AO2 SLP158 T01890144
KTPA 211053Z VRB04KT 10SM FEW100 BKN250 19/14 A3001 RMK AO2 SLP160 T01890144
KTPA 211153Z VRB04KT 10SM FEW025 SCT130 BKN250 19/15 A3001 RMK AO2 SLP163 T01890150 10194 20183 55002
KTPA 211253Z 08004KT 10SM SCT150 BKN250 19/16 A3003 RMK AO2 SLP168 T01940156
KTPA 211353Z 07004KT 10SM FEW020 SCT150 BKN250 21/16 A3003 RMK AO2 SLP168 T02110161
KTPA 211453Z 11008KT 10SM FEW080 OVC220 23/17 A3003 RMK AO2 SLP169 T02330172 51007
KTPA 211553Z 13007KT 100V160 10SM SCT060 OVC220 24/17 A3002 RMK AO2 SLP167 T02390172
KTPA 211653Z 15007KT 10SM BKN065 BKN080 OVC200 23/18 A3001 RMK AO2 SLP162 T02330178
KTPA 211753Z 15008KT 10SM BKN055 BKN070 OVC200 24/18 A2997 RMK AO2 SLP149 T02390183 10244 20189 58020
KTPA 211853Z 12004KT 10SM BKN065 OVC180 23/18 A2995 RMK AO2 SLP142 SHRA DSNT S-SW T02330178
KTPA 211953Z 08005KT 10SM BKN055 OVC080 24/18 A2993 RMK AO2 SLP134 T02390178
KTPA 212053Z 10004KT 10SM FEW035 BKN065 BKN180 24/18 A2993 RMK AO2 SLP133 T02440178 56016
KTPA 212153Z 10005KT 7SM FEW035 SCT055 SCT150 24/18 A2992 RMK AO2 SLP132 T02440183